createdAt,value
2019-05-14T00:01:05.098Z,99.90
2019-05-14T00:03:35.302Z,99.90
2019-05-14T00:06:05.452Z,99.90
2019-05-14T00:08:35.703Z,99.90
2019-05-14T00:11:06.301Z,99.90
2019-05-14T00:13:36.497Z,99.90
2019-05-14T00:16:06.735Z,99.90
2019-05-14T00:18:36.977Z,99.90
2019-05-14T00:21:07.237Z,99.90
2019-05-14T00:23:37.453Z,99.90
2019-05-14T00:26:07.655Z,99.90
2019-05-14T00:28:38.013Z,99.90
2019-05-14T00:31:08.375Z,99.90
2019-05-14T00:33:38.737Z,99.90
2019-05-14T00:36:11.238Z,99.90
2019-05-14T00:38:42.125Z,99.90
2019-05-14T00:41:12.817Z,99.90
2019-05-14T00:43:43.103Z,99.90
2019-05-14T00:46:13.301Z,99.90
2019-05-14T00:48:43.522Z,99.90
2019-05-14T00:51:13.716Z,99.90
2019-05-14T00:53:44.245Z,99.90
2019-05-14T00:56:14.733Z,99.90
2019-05-14T00:58:45.006Z,99.90
2019-05-14T01:01:15.173Z,99.90
2019-05-14T01:03:45.530Z,99.90
2019-05-14T01:06:17.349Z,99.90
2019-05-14T01:08:49.162Z,99.90
2019-05-14T01:11:21.974Z,99.90
2019-05-14T01:13:52.358Z,99.90
2019-05-14T01:16:22.977Z,99.90
2019-05-14T01:18:53.232Z,99.90
2019-05-14T01:21:23.861Z,99.90
2019-05-14T01:23:54.115Z,99.90
2019-05-14T01:26:24.587Z,99.90
2019-05-14T01:28:54.933Z,99.90
2019-05-14T01:31:25.103Z,99.90
2019-05-14T01:33:55.751Z,99.90
2019-05-14T01:36:26.590Z,99.90
2019-05-14T01:38:56.784Z,99.90
2019-05-14T01:41:26.941Z,99.90
2019-05-14T01:43:57.141Z,99.90
2019-05-14T01:46:27.941Z,99.90
2019-05-14T01:48:58.138Z,99.90
2019-05-14T01:51:31.538Z,99.90
2019-05-14T01:54:01.611Z,99.90
2019-05-14T01:56:32.039Z,99.90
2019-05-14T01:59:02.692Z,99.90
2019-05-14T02:01:33.213Z,99.90
2019-05-14T02:04:03.388Z,99.90
2019-05-14T02:06:33.557Z,99.90
2019-05-14T02:09:05.091Z,99.90
2019-05-14T02:11:35.330Z,99.90
2019-05-14T02:14:05.578Z,99.90
2019-05-14T02:16:35.929Z,99.90
2019-05-14T02:19:06.553Z,99.90
2019-05-14T02:21:36.746Z,99.90
2019-05-14T02:24:06.984Z,99.90
2019-05-14T02:26:37.248Z,99.90
2019-05-14T02:29:07.459Z,99.90
2019-05-14T02:31:39.244Z,99.90
2019-05-14T02:34:10.356Z,99.90
2019-05-14T02:36:40.810Z,99.90
2019-05-14T02:39:11.275Z,99.90
2019-05-14T02:41:41.477Z,99.90
2019-05-14T02:44:12.225Z,99.90
2019-05-14T02:46:42.475Z,99.90
2019-05-14T02:49:12.745Z,99.90
2019-05-14T02:51:43.288Z,99.90
2019-05-14T02:54:13.402Z,99.90
2019-05-14T02:56:43.673Z,99.90
2019-05-14T02:59:13.858Z,99.90
2019-05-14T03:01:44.499Z,99.90
2019-05-14T03:04:14.772Z,99.90
2019-05-14T03:06:45.879Z,99.90
2019-05-14T03:09:16.163Z,99.90
2019-05-14T03:11:48.581Z,99.90
2019-05-14T03:14:19.739Z,99.90
2019-05-14T03:16:50.446Z,99.90
2019-05-14T03:19:20.869Z,99.90
2019-05-14T03:21:51.002Z,99.90
2019-05-14T03:24:21.961Z,99.90
2019-05-14T03:26:52.423Z,99.90
2019-05-14T03:29:25.994Z,99.90
2019-05-14T03:31:55.176Z,99.90
2019-05-14T03:34:25.497Z,99.90
2019-05-14T03:36:55.661Z,99.90
2019-05-14T03:39:25.863Z,99.90
2019-05-14T03:41:58.730Z,99.90
2019-05-14T03:44:29.123Z,99.90
2019-05-14T03:47:04.767Z,99.90
2019-05-14T03:49:31.324Z,99.90
2019-05-14T03:52:01.672Z,99.90
2019-05-14T03:54:31.886Z,99.90
2019-05-14T03:57:02.139Z,99.90
2019-05-14T03:59:32.614Z,99.90
2019-05-14T04:02:02.886Z,99.90
2019-05-14T04:04:33.155Z,99.90
2019-05-14T04:07:04.641Z,99.90
2019-05-14T04:09:35.554Z,99.90
2019-05-14T04:12:09.965Z,99.90
2019-05-14T04:14:43.129Z,99.90
2019-05-14T04:17:20.111Z,99.90
2019-05-14T04:19:50.115Z,99.90
2019-05-14T04:22:23.526Z,99.90
2019-05-14T04:24:55.916Z,99.90
2019-05-14T04:27:30.137Z,99.90
2019-05-14T04:30:02.937Z,99.90
2019-05-14T04:32:33.326Z,99.90
2019-05-14T04:35:04.401Z,99.90
2019-05-14T04:37:34.488Z,99.90
2019-05-14T04:40:05.346Z,99.90
2019-05-14T04:42:35.516Z,99.90
2019-05-14T04:45:10.549Z,99.90
2019-05-14T04:47:42.087Z,99.90
2019-05-14T04:50:11.927Z,99.90
2019-05-14T04:52:42.154Z,99.90
2019-05-14T04:55:12.436Z,99.90
2019-05-14T04:57:42.701Z,99.90
2019-05-14T05:00:13.444Z,99.90
2019-05-14T05:02:43.615Z,99.90
2019-05-14T05:05:14.185Z,99.90
2019-05-14T05:07:44.358Z,99.90
2019-05-14T05:10:14.676Z,99.90
2019-05-14T05:12:45.141Z,99.90
2019-05-14T05:15:15.352Z,99.90
2019-05-14T05:17:51.744Z,99.90
2019-05-14T05:20:19.292Z,99.90
2019-05-14T05:22:49.829Z,99.90
2019-05-14T05:25:19.941Z,99.90
2019-05-14T05:27:50.129Z,99.90
2019-05-14T05:30:21.685Z,99.90
2019-05-14T05:32:51.821Z,99.90
2019-05-14T05:35:22.145Z,99.90
2019-05-14T05:37:52.409Z,99.90
2019-05-14T05:40:22.617Z,99.90
2019-05-14T05:42:52.792Z,99.90
2019-05-14T05:45:23.077Z,99.90
2019-05-14T05:47:57.860Z,99.90
2019-05-14T05:50:25.450Z,99.90
2019-05-14T05:52:58.378Z,99.90
2019-05-14T05:55:28.840Z,99.90
2019-05-14T05:58:01.093Z,99.90
2019-05-14T06:00:41.375Z,99.90
2019-05-14T06:03:11.912Z,99.90
2019-05-14T06:05:43.617Z,99.90
2019-05-14T06:08:13.809Z,99.90
2019-05-14T06:10:44.111Z,99.90
2019-05-14T06:13:14.350Z,99.90
2019-05-14T06:15:49.541Z,99.90
2019-05-14T06:18:22.000Z,99.90
2019-05-14T06:20:50.250Z,99.90
2019-05-14T06:23:20.400Z,99.90
2019-05-14T06:25:50.592Z,99.90
2019-05-14T06:28:21.463Z,99.90
2019-05-14T06:30:52.036Z,99.90
2019-05-14T06:33:22.171Z,99.90
2019-05-14T06:35:52.583Z,99.90
2019-05-14T06:38:22.823Z,99.90
2019-05-14T06:40:53.009Z,99.90
2019-05-14T06:43:23.186Z,99.90
2019-05-14T06:45:53.393Z,99.90
2019-05-14T06:48:30.774Z,99.90
2019-05-14T06:50:58.048Z,99.90
2019-05-14T06:53:29.035Z,99.90
2019-05-14T06:56:00.142Z,99.90
2019-05-14T06:58:31.695Z,99.90
2019-05-14T07:01:02.332Z,99.90
2019-05-14T07:03:32.532Z,99.90
2019-05-14T07:06:03.253Z,99.90
2019-05-14T07:08:33.788Z,99.90
2019-05-14T07:11:04.319Z,99.90
2019-05-14T07:13:34.485Z,99.90
2019-05-14T07:16:04.694Z,99.90
2019-05-14T07:18:48.568Z,99.90
2019-05-14T07:21:08.192Z,99.90
2019-05-14T07:23:38.740Z,99.90
2019-05-14T07:26:09.051Z,99.90
2019-05-14T07:28:42.515Z,99.90
2019-05-14T07:31:12.217Z,99.90
2019-05-14T07:33:42.770Z,99.90
2019-05-14T07:36:12.966Z,99.90
2019-05-14T07:38:43.228Z,99.90
2019-05-14T07:41:13.800Z,99.90
2019-05-14T07:43:44.050Z,99.90
2019-05-14T07:46:14.613Z,99.90
2019-05-14T07:48:44.788Z,99.90
2019-05-14T07:51:15.353Z,99.90
2019-05-14T07:53:45.596Z,99.90
2019-05-14T07:56:15.822Z,99.90
2019-05-14T07:58:45.990Z,99.90
2019-05-14T08:01:18.534Z,99.90
2019-05-14T08:03:48.916Z,99.90
2019-05-14T08:06:19.490Z,99.90
2019-05-14T08:08:49.721Z,99.90
2019-05-14T08:11:20.216Z,99.90
2019-05-14T08:13:51.827Z,99.90
2019-05-14T08:16:22.385Z,99.90
2019-05-14T08:18:52.620Z,99.90
2019-05-14T08:21:23.163Z,99.90
2019-05-14T08:23:53.412Z,99.90
2019-05-14T08:26:23.633Z,99.90
2019-05-14T08:28:54.165Z,99.90
2019-05-14T08:31:24.761Z,99.90
2019-05-14T08:33:54.938Z,99.90
2019-05-14T08:36:25.135Z,99.90
2019-05-14T08:38:55.377Z,99.90
2019-05-14T08:41:28.638Z,99.90
2019-05-14T08:43:59.565Z,99.90
2019-05-14T08:46:29.761Z,99.90
2019-05-14T08:49:00.236Z,99.90
2019-05-14T08:51:30.444Z,99.90
2019-05-14T08:54:00.966Z,99.90
2019-05-14T08:56:31.146Z,99.90
2019-05-14T08:59:01.338Z,99.90
2019-05-14T09:01:31.632Z,99.90
2019-05-14T09:04:01.804Z,99.90
2019-05-14T09:06:32.127Z,99.90
2019-05-14T09:09:02.716Z,99.90
2019-05-14T09:11:35.333Z,99.90
2019-05-14T09:14:10.380Z,99.90
2019-05-14T09:16:46.274Z,99.90
2019-05-14T09:19:09.986Z,99.90
2019-05-14T09:21:40.488Z,99.90
2019-05-14T09:24:10.804Z,99.90
2019-05-14T09:26:41.005Z,99.90
2019-05-14T09:29:22.151Z,99.90
2019-05-14T09:31:43.096Z,99.90
2019-05-14T09:34:14.726Z,99.90
2019-05-14T09:36:45.026Z,99.90
2019-05-14T09:39:15.187Z,99.90
2019-05-14T09:41:45.413Z,99.90
2019-05-14T09:44:15.583Z,99.90
2019-05-14T09:46:45.858Z,99.90
2019-05-14T09:49:18.540Z,99.90
2019-05-14T09:51:48.897Z,99.90
2019-05-14T09:54:19.374Z,99.90
2019-05-14T09:56:49.688Z,99.90
2019-05-14T09:59:20.245Z,99.90
2019-05-14T10:01:51.136Z,99.90
2019-05-14T10:04:21.623Z,99.90
2019-05-14T10:06:52.993Z,99.90
2019-05-14T10:09:23.381Z,99.90
2019-05-14T10:11:54.391Z,99.90
2019-05-14T10:14:24.563Z,99.90
2019-05-14T10:16:54.862Z,99.90
2019-05-14T10:19:25.132Z,99.90
2019-05-14T10:21:55.381Z,99.90
2019-05-14T10:24:25.571Z,99.90
2019-05-14T10:26:55.743Z,99.90
2019-05-14T10:29:28.471Z,99.50
2019-05-14T10:31:59.240Z,99.90
2019-05-14T10:34:29.709Z,99.10
2019-05-14T10:37:00.225Z,99.90
2019-05-14T10:39:30.486Z,99.90
2019-05-14T10:42:00.703Z,99.00
2019-05-14T10:44:31.258Z,99.90
2019-05-14T10:47:01.466Z,99.40
2019-05-14T10:49:33.481Z,99.30
2019-05-14T10:52:03.688Z,99.90
2019-05-14T10:54:34.146Z,99.90
2019-05-14T10:57:04.618Z,99.90
2019-05-14T10:59:34.870Z,99.90
2019-05-14T11:02:05.100Z,99.90
2019-05-14T11:04:35.345Z,99.90
2019-05-14T11:07:05.561Z,98.40
2019-05-14T11:09:37.881Z,99.90
2019-05-14T11:12:08.976Z,97.20
2019-05-14T11:14:39.383Z,99.90
2019-05-14T11:17:11.812Z,99.90
2019-05-14T11:19:42.177Z,96.60
2019-05-14T11:22:12.734Z,99.90
2019-05-14T11:24:43.270Z,97.60
2019-05-14T11:27:13.736Z,96.90
2019-05-14T11:29:43.978Z,98.80
2019-05-14T11:32:14.607Z,97.10
2019-05-14T11:34:44.807Z,96.10
2019-05-14T11:37:15.113Z,97.20
2019-05-14T11:39:45.321Z,96.60
2019-05-14T11:42:16.100Z,95.80
2019-05-14T11:44:48.663Z,95.80
2019-05-14T11:47:18.236Z,91.40
2019-05-14T11:49:49.296Z,93.90
2019-05-14T11:52:21.215Z,96.10
2019-05-14T11:54:51.408Z,91.50
2019-05-14T11:57:21.970Z,92.20
2019-05-14T11:59:52.560Z,94.30
2019-05-14T12:02:22.760Z,93.50
2019-05-14T12:04:52.932Z,91.20
2019-05-14T12:07:23.702Z,91.50
2019-05-14T12:09:54.334Z,89.70
2019-05-14T12:12:24.870Z,87.50
2019-05-14T12:14:58.120Z,92.00
2019-05-14T12:17:29.501Z,88.00
2019-05-14T12:19:59.482Z,92.00
2019-05-14T12:22:29.829Z,86.40
2019-05-14T12:25:00.080Z,86.10
2019-05-14T12:27:30.613Z,85.90
2019-05-14T12:30:00.805Z,90.20
2019-05-14T12:32:31.592Z,92.90
2019-05-14T12:35:02.141Z,90.80
2019-05-14T12:37:32.803Z,88.30
2019-05-14T12:40:02.992Z,82.00
2019-05-14T12:42:33.455Z,87.40
2019-05-14T12:45:03.683Z,82.90
2019-05-14T12:47:33.900Z,78.50
2019-05-14T12:50:04.916Z,84.90
2019-05-14T12:52:35.058Z,85.70
2019-05-14T12:55:05.536Z,81.10
2019-05-14T12:57:39.018Z,82.70
2019-05-14T13:00:10.114Z,75.40
2019-05-14T13:02:40.405Z,77.50
2019-05-14T13:05:10.731Z,86.70
2019-05-14T13:07:41.896Z,81.10
2019-05-14T13:10:13.039Z,76.70
2019-05-14T13:12:43.791Z,78.70
2019-05-14T13:15:14.761Z,73.00
2019-05-14T13:17:44.971Z,69.30
2019-05-14T13:20:15.524Z,76.20
2019-05-14T13:22:46.822Z,77.60
2019-05-14T13:25:18.835Z,74.40
2019-05-14T13:27:49.871Z,70.60
2019-05-14T13:30:20.594Z,76.50
2019-05-14T13:32:51.325Z,76.20
2019-05-14T13:35:21.859Z,67.00
2019-05-14T13:37:52.104Z,65.90
2019-05-14T13:40:22.495Z,73.50
2019-05-14T13:42:52.717Z,73.80
2019-05-14T13:45:23.273Z,75.70
2019-05-14T13:47:53.541Z,74.30
2019-05-14T13:50:24.046Z,72.80
2019-05-14T13:53:02.279Z,75.00
2019-05-14T13:55:30.319Z,73.20
2019-05-14T13:57:59.882Z,64.00
2019-05-14T14:00:30.536Z,61.10
2019-05-14T14:03:01.058Z,60.70
2019-05-14T14:05:31.321Z,66.60
2019-05-14T14:08:01.604Z,60.50
2019-05-14T14:10:36.740Z,62.50
2019-05-14T14:13:06.800Z,61.00
2019-05-14T14:15:38.462Z,63.00
2019-05-14T14:18:08.086Z,58.40
2019-05-14T14:20:39.408Z,57.40
2019-05-14T14:23:22.209Z,57.10
2019-05-14T14:25:41.715Z,56.00
2019-05-14T14:28:12.019Z,54.70
2019-05-14T14:30:42.351Z,55.10
2019-05-14T14:33:13.833Z,51.40
2019-05-14T14:35:45.034Z,52.50
2019-05-14T14:38:15.317Z,50.40
2019-05-14T14:40:45.569Z,52.40
2019-05-14T14:43:18.574Z,50.10
2019-05-14T14:45:51.011Z,46.20
2019-05-14T14:48:20.607Z,50.10
2019-05-14T14:50:51.013Z,54.10
2019-05-14T14:53:40.902Z,52.60
2019-05-14T14:55:53.166Z,49.50
2019-05-14T14:58:23.874Z,48.50
2019-05-14T15:00:54.025Z,50.60
2019-05-14T15:03:24.653Z,48.00
2019-05-14T15:05:55.557Z,49.10
2019-05-14T15:08:25.866Z,50.30
2019-05-14T15:10:59.116Z,48.00
2019-05-14T15:13:28.372Z,48.50
2019-05-14T15:16:01.121Z,49.20
2019-05-14T15:18:30.558Z,44.90
2019-05-14T15:21:01.197Z,45.20
2019-05-14T15:23:31.851Z,47.70
2019-05-14T15:26:02.112Z,46.00
2019-05-14T15:28:32.408Z,48.20
2019-05-14T15:31:02.542Z,48.20
2019-05-14T15:33:32.746Z,50.40
2019-05-14T15:36:03.262Z,50.20
2019-05-14T15:38:33.574Z,54.00
2019-05-14T15:41:03.829Z,50.00
2019-05-14T15:43:34.070Z,52.00
2019-05-14T15:46:04.320Z,46.50
2019-05-14T15:48:34.601Z,47.70
2019-05-14T15:51:04.853Z,48.30
2019-05-14T15:53:35.111Z,44.40
2019-05-14T15:56:07.900Z,48.60
2019-05-14T15:58:38.959Z,47.90
2019-05-14T16:01:10.481Z,46.30
2019-05-14T16:03:41.828Z,44.50
2019-05-14T16:06:12.121Z,45.70
2019-05-14T16:08:42.427Z,44.90
2019-05-14T16:11:12.753Z,47.10
2019-05-14T16:13:43.052Z,47.40
2019-05-14T16:16:13.532Z,45.50
2019-05-14T16:18:43.761Z,45.20
2019-05-14T16:21:14.024Z,45.80
2019-05-14T16:23:44.665Z,44.90
2019-05-14T16:26:14.876Z,46.90
2019-05-14T16:28:45.232Z,46.50
2019-05-14T16:31:15.571Z,46.40
2019-05-14T16:33:48.858Z,46.20
2019-05-14T16:36:18.431Z,44.10
2019-05-14T16:38:49.145Z,46.40
2019-05-14T16:41:19.344Z,47.70
2019-05-14T16:43:49.762Z,47.00
2019-05-14T16:46:20.048Z,44.00
2019-05-14T16:48:50.682Z,44.40
2019-05-14T16:51:20.938Z,45.80
2019-05-14T16:53:51.100Z,45.00
2019-05-14T16:56:21.330Z,47.80
2019-05-14T16:58:52.112Z,46.70
2019-05-14T17:01:22.456Z,44.30
2019-05-14T17:03:52.938Z,46.00
2019-05-14T17:06:23.134Z,48.50
2019-05-14T17:08:53.418Z,45.60
2019-05-14T17:11:23.675Z,45.00
2019-05-14T17:13:53.912Z,47.00
2019-05-14T17:16:24.098Z,47.70
2019-05-14T17:18:54.411Z,47.70
2019-05-14T17:21:24.596Z,46.80
2019-05-14T17:23:55.323Z,45.80
2019-05-14T17:26:25.601Z,45.60
2019-05-14T17:28:56.194Z,45.20
2019-05-14T17:31:26.747Z,47.00
2019-05-14T17:33:58.432Z,46.50
2019-05-14T17:36:29.394Z,46.00
2019-05-14T17:39:00.125Z,45.40
2019-05-14T17:41:30.365Z,46.80
2019-05-14T17:44:00.656Z,46.50
2019-05-14T17:46:30.841Z,47.40
2019-05-14T17:49:03.785Z,47.90
2019-05-14T17:51:33.996Z,49.30
2019-05-14T17:54:04.666Z,49.40
2019-05-14T17:56:34.867Z,50.10
2019-05-14T17:59:05.333Z,51.50
2019-05-14T18:01:35.590Z,50.60
2019-05-14T18:04:05.872Z,50.60
2019-05-14T18:06:36.165Z,51.20
2019-05-14T18:09:09.083Z,51.60
2019-05-14T18:11:40.114Z,53.20
2019-05-14T18:14:11.984Z,55.30
2019-05-14T18:16:42.670Z,56.80
2019-05-14T18:19:12.966Z,59.00
2019-05-14T18:21:43.229Z,59.80
2019-05-14T18:24:13.539Z,61.40
2019-05-14T18:26:43.769Z,62.80
2019-05-14T18:29:14.024Z,63.20
2019-05-14T18:31:45.525Z,63.00
2019-05-14T18:34:18.974Z,64.50
2019-05-14T18:36:49.096Z,63.70
2019-05-14T18:39:20.908Z,66.00
2019-05-14T18:41:51.292Z,66.50
2019-05-14T18:44:21.592Z,66.00
2019-05-14T18:46:51.789Z,66.70
2019-05-14T18:49:21.936Z,67.50
2019-05-14T18:51:52.101Z,67.70
2019-05-14T18:54:22.684Z,68.20
2019-05-14T18:56:52.872Z,68.70
2019-05-14T18:59:23.444Z,68.60
2019-05-14T19:01:54.219Z,69.60
2019-05-14T19:04:24.562Z,68.40
2019-05-14T19:06:54.826Z,69.50
2019-05-14T19:09:25.047Z,70.60
2019-05-14T19:11:55.335Z,70.80
2019-05-14T19:14:25.569Z,70.50
2019-05-14T19:16:58.373Z,69.90
2019-05-14T19:19:29.378Z,70.20
2019-05-14T19:22:00.351Z,71.60
2019-05-14T19:24:30.621Z,72.80
2019-05-14T19:27:00.826Z,73.60
2019-05-14T19:29:31.109Z,73.50
2019-05-14T19:32:01.655Z,73.20
2019-05-14T19:34:31.926Z,75.20
2019-05-14T19:37:02.431Z,74.80
2019-05-14T19:39:32.932Z,73.80
2019-05-14T19:42:03.122Z,74.00
2019-05-14T19:44:33.347Z,76.10
2019-05-14T19:47:03.872Z,76.20
2019-05-14T19:49:34.128Z,74.70
2019-05-14T19:52:04.340Z,76.70
2019-05-14T19:54:34.877Z,74.70
2019-05-14T19:57:05.170Z,76.10
2019-05-14T19:59:35.536Z,76.00
2019-05-14T20:02:06.225Z,77.00
2019-05-14T20:04:36.897Z,75.40
2019-05-14T20:07:09.626Z,76.90
2019-05-14T20:09:39.889Z,76.20
2019-05-14T20:12:10.071Z,77.60
2019-05-14T20:14:40.364Z,79.30
2019-05-14T20:17:10.886Z,80.70
2019-05-14T20:19:41.103Z,81.50
2019-05-14T20:22:11.304Z,84.20
2019-05-14T20:24:42.067Z,83.80
2019-05-14T20:27:12.555Z,84.90
2019-05-14T20:29:43.994Z,87.40
2019-05-14T20:32:14.712Z,87.80
2019-05-14T20:34:45.314Z,89.00
2019-05-14T20:37:15.648Z,90.40
2019-05-14T20:39:48.361Z,92.20
2019-05-14T20:42:19.052Z,93.00
2019-05-14T20:44:49.586Z,94.20
2019-05-14T20:47:21.588Z,94.80
2019-05-14T20:49:51.857Z,95.50
2019-05-14T20:52:22.534Z,98.20
2019-05-14T20:54:52.801Z,99.90
2019-05-14T20:57:27.613Z,99.90
2019-05-14T20:59:54.926Z,99.90
2019-05-14T21:02:25.486Z,99.90
2019-05-14T21:05:03.656Z,99.90
2019-05-14T21:07:28.898Z,99.90
2019-05-14T21:09:59.707Z,99.90
2019-05-14T21:12:29.980Z,99.90
2019-05-14T21:15:00.343Z,99.90
2019-05-14T21:17:31.041Z,99.90
2019-05-14T21:20:01.539Z,99.90
2019-05-14T21:22:31.824Z,99.90
2019-05-14T21:25:02.180Z,99.90
2019-05-14T21:27:44.619Z,99.90
2019-05-14T21:30:04.918Z,99.90
2019-05-14T21:32:39.348Z,99.90
2019-05-14T21:35:08.699Z,99.90
2019-05-14T21:37:39.691Z,99.90
2019-05-14T21:40:10.525Z,99.90
2019-05-14T21:42:40.849Z,99.90
2019-05-14T21:45:11.454Z,99.90
2019-05-14T21:47:41.742Z,99.90
2019-05-14T21:50:12.302Z,99.90
2019-05-14T21:52:42.969Z,99.90
2019-05-14T21:55:13.640Z,99.90
2019-05-14T21:57:54.258Z,99.90
2019-05-14T22:00:22.453Z,99.90
2019-05-14T22:02:54.518Z,99.90
2019-05-14T22:05:25.439Z,99.90
2019-05-14T22:07:57.808Z,99.90
2019-05-14T22:10:28.768Z,99.90
2019-05-14T22:12:59.363Z,99.90
2019-05-14T22:15:30.077Z,99.90
2019-05-14T22:18:01.266Z,99.90
2019-05-14T22:20:31.660Z,99.90
2019-05-14T22:23:01.996Z,99.90
2019-05-14T22:25:32.881Z,99.90
2019-05-14T22:28:12.391Z,99.90
2019-05-14T22:30:35.124Z,99.90
2019-05-14T22:33:05.448Z,99.90
2019-05-14T22:35:35.780Z,99.90
2019-05-14T22:38:06.070Z,99.90
2019-05-14T22:40:39.029Z,99.90
2019-05-14T22:43:10.771Z,99.90
2019-05-14T22:45:42.208Z,99.90
2019-05-14T22:48:12.437Z,99.90
2019-05-14T22:50:42.788Z,99.90
2019-05-14T22:53:13.078Z,99.90
2019-05-14T22:55:43.377Z,99.90
2019-05-14T22:58:25.157Z,99.90
2019-05-14T23:00:57.982Z,99.90
2019-05-14T23:03:20.935Z,99.90
2019-05-14T23:05:50.777Z,99.90
2019-05-14T23:08:21.079Z,99.90
2019-05-14T23:10:51.731Z,99.90
2019-05-14T23:13:22.032Z,99.90
2019-05-14T23:15:52.746Z,99.90
2019-05-14T23:18:23.353Z,99.90
2019-05-14T23:20:53.692Z,99.90
2019-05-14T23:23:24.279Z,99.90
2019-05-14T23:25:54.616Z,99.90
2019-05-14T23:28:38.856Z,99.90
2019-05-14T23:30:58.807Z,99.90
2019-05-14T23:33:32.735Z,99.90
2019-05-14T23:36:04.132Z,99.90
2019-05-14T23:38:38.438Z,99.90
2019-05-14T23:41:08.843Z,99.90
2019-05-14T23:43:40.580Z,99.90
2019-05-14T23:46:10.956Z,99.90
2019-05-14T23:48:41.281Z,99.90
2019-05-14T23:51:11.663Z,99.90
2019-05-14T23:53:41.978Z,99.90
2019-05-14T23:56:12.610Z,99.90
2019-05-14T23:58:54.717Z,99.90
